Time;durP1;ratioP1;P1;durP2;ratioP2;P2;SDS_P1;SDS_P2;PMS_P1;PMS_P2;Temp;Humidity;BMP_temperature;BMP_pressure;BME280_temperature;BME280_humidity;BME280_pressure;Samples;Min_cycle;Max_cycle;Signal;HPM_P1;HPM_P2
2021/06/07 00:01:49;;;;;;;8.43;7.05;;;;;;;;;;4940223;29;20399;-94
2021/06/07 00:04:19;;;;;;;8.32;6.68;;;;;;;;;;4946209;29;20048;-94
2021/06/07 00:06:47;;;;;;;8.02;6.63;;;;;;;;;;4936732;29;20134;-94
2021/06/07 00:09:17;;;;;;;9.35;6.80;;;;;;;;;;4920715;29;20142;-93
2021/06/07 00:11:49;;;;;;;7.22;6.03;;;;;;;;;;4923770;29;20051;-94
2021/06/07 00:14:18;;;;;;;8.10;6.43;;;;;;;;;;4954951;29;20444;-95
2021/06/07 00:16:45;;;;;;;7.13;6.43;;;;;;;;;;4955515;29;20066;-94
2021/06/07 00:19:16;;;;;;;7.55;6.20;;;;;;;;;;4939614;29;20058;-94
2021/06/07 00:21:43;;;;;;;7.25;6.50;;;;;;;;;;4939465;29;20483;-94
2021/06/07 00:24:13;;;;;;;7.63;6.43;;;;;;;;;;4939302;29;20078;-95
2021/06/07 00:26:42;;;;;;;7.20;6.35;;;;;;;;;;4955266;29;20044;-93
2021/06/07 00:29:09;;;;;;;9.20;6.68;;;;;;;;;;4933967;29;20108;-94
2021/06/07 00:31:39;;;;;;;8.23;6.90;;;;;;;;;;4941054;29;20043;-95
2021/06/07 00:34:07;;;;;;;8.23;6.75;;;;;;;;;;4920768;29;20448;-94
2021/06/07 00:36:39;;;;;;;8.35;6.30;;;;;;;;;;4936089;29;20488;-95
2021/06/07 00:39:07;;;;;;;9.73;6.70;;;;;;;;;;4935407;29;20047;-94
2021/06/07 00:41:36;;;;;;;6.90;6.28;;;;;;;;;;4920689;29;20055;-95
2021/06/07 00:44:07;;;;;;;7.35;6.65;;;;;;;;;;4935561;29;20126;-94
2021/06/07 00:46:34;;;;;;;7.10;6.40;;;;;;;;;;4919910;29;20151;-94
2021/06/07 00:49:01;;;;;;;7.57;6.38;;;;;;;;;;4936010;29;20146;-94
2021/06/07 00:51:28;;;;;;;7.43;6.63;;;;;;;;;;4935830;29;20043;-94
2021/06/07 00:53:54;;;;;;;7.45;6.65;;;;;;;;;;4935792;29;20048;-93
2021/06/07 00:56:21;;;;;;;9.15;7.25;;;;;;;;;;4936295;29;20054;-94
2021/06/07 00:58:50;;;;;;;7.57;6.00;;;;;;;;;;4945504;28;20067;-93
2021/06/07 01:01:19;;;;;;;7.72;6.68;;;;;;;;;;4922543;29;20543;-93
2021/06/07 01:03:53;;;;;;;6.68;5.97;;;;;;;;;;4939409;29;20054;-93
2021/06/07 01:06:21;;;;;;;8.10;7.10;;;;;;;;;;4954932;28;20054;-94
2021/06/07 01:08:50;;;;;;;8.23;6.53;;;;;;;;;;4939093;29;20403;-94
2021/06/07 01:11:17;;;;;;;8.52;6.65;;;;;;;;;;4921991;29;20079;-93
2021/06/07 01:13:44;;;;;;;6.90;6.20;;;;;;;;;;4938616;29;20051;-93
2021/06/07 01:16:11;;;;;;;7.20;6.32;;;;;;;;;;4938073;28;20086;-94
2021/06/07 01:18:37;;;;;;;7.40;6.15;;;;;;;;;;4938154;29;20054;-94
2021/06/07 01:21:09;;;;;;;8.02;6.07;;;;;;;;;;4938753;29;20425;-94
2021/06/07 01:23:36;;;;;;;6.55;5.85;;;;;;;;;;4922737;29;20051;-92
2021/06/07 01:26:03;;;;;;;7.32;6.10;;;;;;;;;;4924069;28;20062;-93
2021/06/07 01:28:30;;;;;;;7.07;6.38;;;;;;;;;;4938886;28;20126;-93
2021/06/07 01:30:59;;;;;;;7.72;6.20;;;;;;;;;;4937975;29;20040;-93
2021/06/07 01:33:31;;;;;;;6.45;5.70;;;;;;;;;;4922669;29;20058;-94
2021/06/07 01:36:01;;;;;;;8.60;6.20;;;;;;;;;;4938812;29;20074;-93
2021/06/07 01:38:27;;;;;;;9.15;6.70;;;;;;;;;;4922013;29;20138;-93
2021/06/07 01:40:56;;;;;;;9.15;7.28;;;;;;;;;;4922334;29;20055;-93
2021/06/07 01:43:22;;;;;;;9.68;7.13;;;;;;;;;;4937985;29;20051;-93
2021/06/07 01:45:52;;;;;;;10.73;7.45;;;;;;;;;;4922716;29;20055;-93
2021/06/07 01:48:21;;;;;;;8.60;7.10;;;;;;;;;;4922234;29;20055;-93
2021/06/07 01:50:48;;;;;;;6.95;6.25;;;;;;;;;;4922614;29;20055;-93
2021/06/07 01:53:19;;;;;;;7.47;6.47;;;;;;;;;;4922055;29;20055;-92
2021/06/07 01:55:49;;;;;;;9.32;7.07;;;;;;;;;;4937872;29;20518;-93
2021/06/07 01:58:17;;;;;;;9.32;7.95;;;;;;;;;;4921929;29;20113;-93
2021/06/07 02:00:46;;;;;;;11.30;8.25;;;;;;;;;;4954800;28;20134;-93
2021/06/07 02:03:16;;;;;;;10.85;7.60;;;;;;;;;;4937954;29;20051;-93
2021/06/07 02:05:46;;;;;;;8.18;7.38;;;;;;;;;;4963907;28;20122;-93
2021/06/07 02:08:13;;;;;;;7.20;6.50;;;;;;;;;;4956816;28;20054;-93
2021/06/07 02:10:47;;;;;;;8.13;7.18;;;;;;;;;;4957709;28;20101;-94
2021/06/07 02:13:16;;;;;;;8.45;7.43;;;;;;;;;;4941255;28;20066;-93
2021/06/07 02:15:43;;;;;;;9.88;8.48;;;;;;;;;;4957518;28;20057;-93
2021/06/07 02:18:11;;;;;;;9.68;8.30;;;;;;;;;;4941079;28;20061;-93
2021/06/07 02:20:38;;;;;;;9.95;7.70;;;;;;;;;;4957017;28;20046;-93
2021/06/07 02:23:06;;;;;;;12.63;9.93;;;;;;;;;;4941324;28;20419;-93
2021/06/07 02:25:32;;;;;;;9.77;8.27;;;;;;;;;;4956744;28;20379;-92
2021/06/07 02:27:59;;;;;;;8.55;7.65;;;;;;;;;;4956852;28;20043;-93
2021/06/07 02:30:29;;;;;;;8.95;7.30;;;;;;;;;;4959584;28;20046;-92
2021/06/07 02:32:57;;;;;;;10.43;7.80;;;;;;;;;;4977620;28;20499;-93
2021/06/07 02:35:24;;;;;;;9.80;8.80;;;;;;;;;;4936436;29;20078;-93
2021/06/07 02:37:52;;;;;;;11.27;8.60;;;;;;;;;;4941074;29;20043;-92
2021/06/07 02:40:20;;;;;;;16.13;10.45;;;;;;;;;;4940848;29;20044;-92
2021/06/07 02:42:47;;;;;;;8.55;7.65;;;;;;;;;;4941230;29;20039;-93
2021/06/07 02:45:15;;;;;;;6.40;5.80;;;;;;;;;;4957764;28;20043;-93
2021/06/07 02:48:00;;;;;;;9.68;6.88;;;;;;;;;;4943640;29;20403;-93
2021/06/07 02:50:29;;;;;;;8.25;7.05;;;;;;;;;;4924640;29;20051;-93
2021/06/07 02:52:56;;;;;;;6.22;5.63;;;;;;;;;;4940975;29;20467;-93
2021/06/07 02:55:28;;;;;;;7.47;6.28;;;;;;;;;;4941263;29;20049;-92
2021/06/07 02:57:57;;;;;;;11.60;7.18;;;;;;;;;;4956172;28;20430;-93
2021/06/07 03:00:31;;;;;;;8.68;7.20;;;;;;;;;;4959643;28;20062;-93
2021/06/07 03:03:00;;;;;;;8.98;6.53;;;;;;;;;;4944526;28;20187;-92
2021/06/07 03:05:29;;;;;;;10.00;7.20;;;;;;;;;;4959808;28;20047;-92
2021/06/07 03:07:57;;;;;;;9.45;7.55;;;;;;;;;;4960221;28;20043;-92
2021/06/07 03:10:24;;;;;;;11.50;9.00;;;;;;;;;;4959779;28;20058;-92
2021/06/07 03:12:56;;;;;;;12.27;9.40;;;;;;;;;;4961017;28;20042;-92
2021/06/07 03:15:24;;;;;;;7.18;6.57;;;;;;;;;;4947909;28;20126;-93
2021/06/07 03:17:51;;;;;;;10.00;7.15;;;;;;;;;;4925314;29;20051;-93
2021/06/07 03:20:19;;;;;;;10.13;8.68;;;;;;;;;;4940492;29;20043;-93
2021/06/07 03:22:47;;;;;;;10.30;8.18;;;;;;;;;;4925300;29;20082;-93
2021/06/07 03:25:15;;;;;;;12.95;9.50;;;;;;;;;;4940842;29;20058;-93
2021/06/07 03:27:42;;;;;;;12.70;10.57;;;;;;;;;;4924047;29;20057;-92
2021/06/07 03:30:09;;;;;;;14.32;10.50;;;;;;;;;;4924914;29;20051;-92
2021/06/07 03:32:36;;;;;;;13.98;11.32;;;;;;;;;;4923972;29;20800;-92
2021/06/07 03:35:07;;;;;;;16.77;12.98;;;;;;;;;;4967690;28;20039;-92
2021/06/07 03:37:36;;;;;;;9.45;7.65;;;;;;;;;;4958636;28;20043;-92
2021/06/07 03:40:06;;;;;;;10.63;7.50;;;;;;;;;;4975915;28;20043;-92
2021/06/07 03:42:33;;;;;;;10.43;8.07;;;;;;;;;;4954961;28;20039;-93
2021/06/07 03:45:01;;;;;;;14.18;10.00;;;;;;;;;;4940298;29;20460;-93
2021/06/07 03:47:27;;;;;;;12.77;9.73;;;;;;;;;;4939187;29;20059;-92
2021/06/07 03:49:54;;;;;;;11.38;9.18;;;;;;;;;;4957039;28;20055;-92
2021/06/07 03:52:22;;;;;;;11.60;9.60;;;;;;;;;;4939132;29;20042;-93
2021/06/07 03:54:48;;;;;;;10.73;8.30;;;;;;;;;;4949627;28;20101;-92
2021/06/07 03:57:14;;;;;;;12.70;9.43;;;;;;;;;;4958896;28;20046;-92
2021/06/07 03:59:41;;;;;;;11.65;9.38;;;;;;;;;;4959291;28;20129;-91
2021/06/07 04:02:09;;;;;;;10.88;8.32;;;;;;;;;;4978697;28;20074;-91
2021/06/07 04:04:36;;;;;;;9.85;7.97;;;;;;;;;;4959276;28;20042;-93
2021/06/07 04:07:05;;;;;;;12.10;9.38;;;;;;;;;;4958943;28;20069;-92
2021/06/07 04:09:33;;;;;;;7.80;6.55;;;;;;;;;;4957741;28;20049;-92
2021/06/07 04:12:00;;;;;;;8.25;7.32;;;;;;;;;;4975585;28;20079;-93
2021/06/07 04:14:26;;;;;;;11.75;10.48;;;;;;;;;;4941427;28;20051;-93
2021/06/07 04:16:54;;;;;;;10.85;7.85;;;;;;;;;;4944893;28;20101;-92
2021/06/07 04:19:25;;;;;;;10.43;8.68;;;;;;;;;;4939074;29;20039;-93
2021/06/07 04:21:53;;;;;;;12.20;8.27;;;;;;;;;;4927386;29;20388;-91
2021/06/07 04:24:27;;;;;;;12.35;10.68;;;;;;;;;;4962058;29;20050;-92
2021/06/07 04:26:56;;;;;;;9.90;8.15;;;;;;;;;;4927222;28;20093;-95
2021/06/07 04:29:23;;;;;;;14.40;10.20;;;;;;;;;;4974952;28;20455;-93
2021/06/07 04:31:52;;;;;;;13.70;9.15;;;;;;;;;;4958771;28;20126;-96
2021/06/07 04:34:19;;;;;;;20.67;13.55;;;;;;;;;;4958852;28;20043;-94
2021/06/07 04:36:45;;;;;;;14.48;12.88;;;;;;;;;;4957699;28;20070;-93
2021/06/07 04:39:14;;;;;;;15.45;12.23;;;;;;;;;;4974378;28;20057;-90
2021/06/07 04:41:42;;;;;;;16.92;12.05;;;;;;;;;;4940228;28;20053;-90
2021/06/07 04:44:09;;;;;;;18.30;12.40;;;;;;;;;;4956786;28;20047;-90
2021/06/07 04:46:35;;;;;;;14.95;11.73;;;;;;;;;;4940778;28;20447;-91
2021/06/07 04:49:03;;;;;;;14.88;12.27;;;;;;;;;;4941194;28;20054;-91
2021/06/07 04:51:32;;;;;;;13.77;11.57;;;;;;;;;;4972812;28;20039;-91
2021/06/07 04:53:59;;;;;;;13.23;11.48;;;;;;;;;;4947204;28;20039;-90
2021/06/07 04:56:27;;;;;;;11.77;10.48;;;;;;;;;;4954029;28;20065;-91
2021/06/07 04:58:53;;;;;;;13.30;10.38;;;;;;;;;;4932869;29;20179;-91
2021/06/07 05:01:20;;;;;;;13.18;9.90;;;;;;;;;;4916849;29;20048;-91
2021/06/07 05:03:46;;;;;;;10.30;9.02;;;;;;;;;;4899136;29;20056;-91
2021/06/07 05:06:12;;;;;;;11.85;8.98;;;;;;;;;;4914794;29;20043;-90
2021/06/07 05:08:39;;;;;;;10.10;9.10;;;;;;;;;;4915626;29;20477;-91
2021/06/07 05:11:05;;;;;;;13.98;9.35;;;;;;;;;;4884281;29;20051;-91
2021/06/07 05:13:32;;;;;;;10.93;9.18;;;;;;;;;;4922119;29;20488;-91
2021/06/07 05:16:06;;;;;;;10.00;9.00;;;;;;;;;;4918304;29;20134;-91
2021/06/07 05:18:34;;;;;;;9.75;8.85;;;;;;;;;;4917922;29;20115;-91
2021/06/07 05:21:01;;;;;;;10.90;8.63;;;;;;;;;;4918455;29;20055;-91
2021/06/07 05:23:35;;;;;;;11.07;8.70;;;;;;;;;;4918378;29;20043;-92
2021/06/07 05:26:03;;;;;;;10.18;8.48;;;;;;;;;;4919366;29;20055;-90
2021/06/07 05:28:30;;;;;;;9.18;8.27;;;;;;;;;;4917825;29;20047;-90
2021/06/07 05:30:56;;;;;;;10.50;7.07;;;;;;;;;;4918413;29;20059;-90
2021/06/07 05:33:25;;;;;;;10.52;8.48;;;;;;;;;;4908848;29;20203;-92
2021/06/07 05:35:53;;;;;;;11.50;8.65;;;;;;;;;;4928653;29;20043;-91
2021/06/07 05:38:20;;;;;;;9.32;7.85;;;;;;;;;;4934582;29;20048;-91
2021/06/07 05:40:50;;;;;;;9.90;7.47;;;;;;;;;;4918525;29;20110;-92
2021/06/07 05:43:22;;;;;;;10.30;7.80;;;;;;;;;;4934140;29;20126;-91
2021/06/07 05:45:49;;;;;;;11.55;7.70;;;;;;;;;;4933095;29;20119;-91
2021/06/07 05:48:15;;;;;;;10.45;7.25;;;;;;;;;;4933265;29;20143;-91
2021/06/07 05:50:42;;;;;;;8.43;5.65;;;;;;;;;;4933110;29;20036;-91
2021/06/07 05:53:08;;;;;;;6.40;5.72;;;;;;;;;;4909261;29;20055;-91
2021/06/07 05:55:43;;;;;;;8.38;5.85;;;;;;;;;;4914775;29;20052;-91
2021/06/07 05:58:19;;;;;;;8.43;5.90;;;;;;;;;;4914416;29;20044;-91
2021/06/07 06:00:47;;;;;;;;;;;;;;;;;;4916822;29;20512;-90
2021/06/07 06:03:15;;;;;;;9.05;6.38;;;;;;;;;;4934831;29;20013;-92
2021/06/07 06:05:42;;;;;;;7.63;6.05;;;;;;;;;;4936858;29;20055;-94
2021/06/07 06:08:10;;;;;;;7.43;6.32;;;;;;;;;;4944324;29;20380;-91
2021/06/07 06:10:38;;;;;;;10.27;6.15;;;;;;;;;;4945475;29;20046;-92
2021/06/07 06:13:04;;;;;;;6.22;5.63;;;;;;;;;;4946241;29;20122;-91
2021/06/07 06:15:31;;;;;;;6.43;5.38;;;;;;;;;;4946305;29;20376;-93
2021/06/07 06:17:57;;;;;;;6.95;5.30;;;;;;;;;;4930938;29;20059;-91
2021/06/07 06:20:30;;;;;;;7.90;5.18;;;;;;;;;;4949823;29;20061;-90
2021/06/07 06:22:56;;;;;;;6.75;5.68;;;;;;;;;;4942316;29;20412;-91
2021/06/07 06:25:32;;;;;;;6.20;4.47;;;;;;;;;;4937375;29;20032;-91
2021/06/07 06:27:58;;;;;;;7.10;5.40;;;;;;;;;;4944980;29;20059;-92
2021/06/07 06:30:26;;;;;;;6.25;4.85;;;;;;;;;;4953586;29;20118;-90
2021/06/07 06:32:54;;;;;;;8.95;5.40;;;;;;;;;;4956259;29;20058;-91
2021/06/07 06:35:21;;;;;;;7.70;5.10;;;;;;;;;;4940732;29;20159;-90
2021/06/07 06:37:50;;;;;;;7.03;5.20;;;;;;;;;;4940244;29;20118;-91
2021/06/07 06:40:24;;;;;;;9.43;5.00;;;;;;;;;;4956177;29;20055;-90
2021/06/07 06:42:53;;;;;;;5.72;4.63;;;;;;;;;;4940471;29;20134;-91
2021/06/07 06:45:20;;;;;;;9.13;4.90;;;;;;;;;;4944514;29;20103;-91
2021/06/07 06:47:55;;;;;;;6.65;4.43;;;;;;;;;;4936298;29;20484;-91
2021/06/07 06:50:22;;;;;;;6.03;4.28;;;;;;;;;;4936984;29;20669;-91
2021/06/07 06:52:48;;;;;;;4.75;4.35;;;15.80;81.00;;;;;;4935873;29;20048;-91
2021/06/07 06:55:15;;;;;;;6.80;4.90;;;16.00;79.60;;;;;;4937338;29;20051;-91
2021/06/07 06:57:41;;;;;;;7.10;4.78;;;16.10;80.20;;;;;;4920180;29;20119;-91
2021/06/07 07:00:08;;;;;;;7.28;5.43;;;16.20;81.60;;;;;;4938563;28;20059;-88
2021/06/07 07:02:34;;;;;;;8.38;5.18;;;16.30;81.40;;;;;;4954020;29;20040;-89
2021/06/07 07:05:00;;;;;;;6.15;5.20;;;16.30;82.00;;;;;;4956159;28;20102;-89
2021/06/07 07:07:26;;;;;;;7.28;5.03;;;16.40;81.40;;;;;;4956228;29;20204;-88
2021/06/07 07:09:51;;;;;;;8.50;5.85;;;16.60;80.00;;;;;;4938308;29;20051;-88
2021/06/07 07:12:17;;;;;;;6.25;5.65;;;16.60;81.50;;;;;;4956691;28;20047;-90
2021/06/07 07:14:43;;;;;;;5.68;4.90;;;16.80;80.50;;;;;;4937781;29;20051;-89
2021/06/07 07:17:09;;;;;;;8.38;6.07;;;16.90;78.40;;;;;;4938752;29;20448;-89
2021/06/07 07:19:35;;;;;;;6.88;5.68;;;16.90;78.70;;;;;;4940130;28;20055;-91
2021/06/07 07:22:02;;;;;;;8.00;5.85;;;17.00;79.10;;;;;;4957870;28;20089;-89
2021/06/07 07:24:28;;;;;;;9.15;6.40;;;17.00;79.70;;;;;;4975028;28;20487;-89
2021/06/07 07:26:55;;;;;;;8.32;6.60;;;17.10;79.90;;;;;;4957685;28;20057;-89
2021/06/07 07:29:22;;;;;;;7.55;6.00;;;17.20;80.10;;;;;;4958065;28;20043;-88
2021/06/07 07:31:49;;;;;;;8.45;5.95;;;17.40;79.20;;;;;;4948357;29;20455;-89
2021/06/07 07:34:16;;;;;;;8.50;6.65;;;17.50;79.60;;;;;;4939950;29;20066;-89
2021/06/07 07:36:42;;;;;;;6.65;6.05;;;17.60;78.20;;;;;;4958361;29;20124;-89
2021/06/07 07:39:07;;;;;;;7.43;6.50;;;17.80;77.10;;;;;;4957947;29;20069;-89
2021/06/07 07:41:33;;;;;;;7.78;6.22;;;17.80;76.00;;;;;;4938916;29;20043;-89
2021/06/07 07:43:59;;;;;;;8.13;5.88;;;17.90;76.20;;;;;;4938065;29;20051;-89
2021/06/07 07:46:25;;;;;;;9.52;6.90;;;17.90;77.40;;;;;;4938234;29;20460;-89
2021/06/07 07:48:51;;;;;;;9.02;6.20;;;17.90;74.60;;;;;;4937795;29;20055;-89
2021/06/07 07:51:16;;;;;;;7.78;6.28;;;18.00;75.70;;;;;;4937971;29;20054;-88
2021/06/07 07:53:42;;;;;;;9.07;7.22;;;18.10;75.00;;;;;;4937601;29;20468;-89
2021/06/07 07:56:09;;;;;;;7.50;6.65;;;18.10;75.60;;;;;;4938433;29;20040;-88
2021/06/07 07:58:35;;;;;;;10.50;7.18;;;18.20;75.50;;;;;;4955278;29;20051;-91
2021/06/07 08:01:01;;;;;;;8.45;6.78;;;;;;;;;;4936921;29;20056;-90
2021/06/07 08:03:28;;;;;;;9.35;6.68;;;;;;;;;;4936460;29;20048;-90
2021/06/07 08:05:54;;;;;;;8.15;7.10;;;;;;;;;;4934705;29;20047;-90
2021/06/07 08:08:20;;;;;;;10.18;7.20;;;;;;;;;;4935194;29;20103;-90
2021/06/07 08:10:48;;;;;;;9.27;7.15;;;;;;;;;;4935554;29;20428;-91
2021/06/07 08:13:14;;;;;;;9.10;7.75;;;;;;;;;;4936266;29;20194;-90
2021/06/07 08:15:40;;;;;;;9.35;7.55;;;;;;;;;;4936152;29;20043;-91
2021/06/07 08:18:06;;;;;;;8.30;7.07;;;;;;;;;;4938587;29;20050;-91
2021/06/07 08:20:33;;;;;;;8.60;7.70;;;;;;;;;;4954021;29;20072;-90
2021/06/07 08:22:59;;;;;;;11.07;8.18;;;;;;;;;;4954001;29;20460;-91
2021/06/07 08:25:26;;;;;;;8.57;7.68;;;;;;;;;;4955449;28;20048;-91
2021/06/07 08:27:52;;;;;;;8.73;7.82;;;;;;;;;;4944359;28;20039;-90
2021/06/07 08:30:20;;;;;;;10.75;8.05;;;;;;;;;;4935012;29;20392;-90
2021/06/07 08:32:47;;;;;;;11.23;7.40;;;;;;;;;;4951103;29;20047;-91
2021/06/07 08:35:13;;;;;;;10.10;7.88;;;;;;;;;;4953842;29;20066;-89
2021/06/07 08:37:40;;;;;;;8.05;7.15;;;;;;;;;;4953049;29;20043;-91
2021/06/07 08:40:07;;;;;;;7.45;5.68;;;;;;;;;;4950240;29;20136;-93
2021/06/07 08:42:34;;;;;;;6.00;5.07;;;;;;;;;;4954298;29;20059;-91
2021/06/07 08:45:01;;;;;;;5.68;4.40;;;;;;;;;;4953106;29;20422;-91
2021/06/07 08:47:28;;;;;;;4.28;3.88;;;;;;;;;;4954128;29;20123;-90
2021/06/07 08:49:54;;;;;;;5.30;4.22;;;;;;;;;;4954303;29;20062;-94
2021/06/07 08:52:20;;;;;;;6.40;4.28;;;;;;;;;;4955034;29;20055;-92
2021/06/07 08:54:47;;;;;;;4.43;3.92;;;;;;;;;;4955121;29;20040;-94
2021/06/07 08:57:18;;;;;;;5.53;3.88;;;;;;;;;;4955639;29;20043;-92
2021/06/07 08:59:45;;;;;;;5.15;4.35;;;;;;;;;;4955292;29;20059;-94
2021/06/07 09:02:11;;;;;;;5.60;4.25;;;;;;;;;;4938620;29;20154;-93
2021/06/07 09:04:47;;;;;;;6.32;4.55;;;;;;;;;;4935846;29;20043;-93
2021/06/07 09:07:14;;;;;;;6.07;4.07;;;;;;;;;;4935220;29;20152;-93
2021/06/07 09:09:42;;;;;;;4.68;4.18;;;;;;;;;;4934508;29;20075;-92
2021/06/07 09:12:20;;;;;;;4.53;3.60;;;;;;;;;;4919493;29;20051;-92
2021/06/07 09:14:48;;;;;;;5.32;3.60;;;;;;;;;;4918757;29;20083;-93
2021/06/07 09:17:23;;;;;;;4.03;3.05;;;;;;;;;;4935061;29;20507;-91
2021/06/07 09:20:13;;;;;;;4.00;3.42;;;;;;;;;;4919182;29;20461;-93
2021/06/07 09:22:39;;;;;;;4.90;3.35;;;;;;;;;;4935896;29;20047;-93
2021/06/07 09:25:07;;;;;;;4.85;3.67;;;;;;;;;;4934659;29;20234;-92
2021/06/07 09:27:36;;;;;;;7.15;4.80;;;;;;;;;;4935451;29;20055;-92
2021/06/07 09:30:24;;;;;;;5.50;4.68;;;;;;;;;;4919028;29;20420;-93
2021/06/07 09:33:14;;;;;;;5.28;4.50;;;;;;;;;;4937611;29;20055;-93
2021/06/07 09:35:42;;;;;;;4.45;4.05;;;;;;;;;;4953805;29;20043;-92
2021/06/07 09:38:10;;;;;;;5.60;4.40;;;;;;;;;;4938875;29;20471;-92
2021/06/07 09:40:39;;;;;;;5.90;5.30;;;;;;;;;;4957464;29;20138;-93
2021/06/07 09:43:06;;;;;;;5.68;4.88;;;;;;;;;;4941793;29;20479;-93
2021/06/07 09:45:45;;;;;;;6.40;4.70;;;;;;;;;;4957768;29;20047;-93
2021/06/07 09:48:13;;;;;;;6.20;4.50;;;;;;;;;;4958925;28;20043;-92
2021/06/07 09:50:59;;;;;;;5.43;4.13;;;;;;;;;;4955266;29;20135;-91
2021/06/07 09:53:48;;;;;;;4.97;4.45;;;;;;;;;;4938284;29;20059;-92
2021/06/07 09:56:14;;;;;;;5.47;4.40;;;;;;;;;;4938381;29;20122;-92
2021/06/07 09:58:41;;;;;;;6.82;5.10;;;;;;;;;;4939383;29;20396;-92
2021/06/07 10:01:13;;;;;;;5.82;5.07;;;;;;;;;;4955900;29;20059;-91
2021/06/07 10:03:44;;;;;;;5.43;4.90;;;;;;;;;;4958195;29;20381;-91
2021/06/07 10:06:21;;;;;;;5.80;4.35;;;;;;;;;;4957811;29;20039;-91
2021/06/07 10:08:48;;;;;;;7.18;5.20;;;;;;;;;;4949222;29;20050;-94
2021/06/07 10:11:19;;;;;;;5.75;4.90;;;;;;;;;;4938654;29;20046;-91
2021/06/07 10:13:46;;;;;;;7.65;5.50;;;;;;;;;;4945634;29;20078;-92
2021/06/07 10:16:12;;;;;;;6.97;5.68;;;;;;;;;;4957296;29;20077;-92
2021/06/07 10:18:41;;;;;;;5.28;4.80;;;;;;;;;;4957809;29;20047;-93
2021/06/07 10:21:10;;;;;;;7.13;6.20;;;;;;;;;;4946533;28;20050;-92
2021/06/07 10:23:37;;;;;;;6.93;5.35;;;;;;;;;;4939117;29;20047;-92
2021/06/07 10:26:07;;;;;;;6.70;6.00;;;;;;;;;;4953310;28;20102;-93
2021/06/07 10:28:35;;;;;;;7.60;6.03;;;;;;;;;;4953040;29;20051;-93
2021/06/07 10:31:09;;;;;;;6.70;6.07;;;;;;;;;;4956445;29;20090;-93
2021/06/07 10:33:38;;;;;;;8.18;6.60;;;;;;;;;;4941416;29;20059;-91
2021/06/07 10:36:22;;;;;;;9.07;8.18;;;;;;;;;;4956275;29;20081;-90
2021/06/07 10:38:53;;;;;;;7.63;6.85;;;;;;;;;;4946562;29;20047;-90
2021/06/07 10:41:19;;;;;;;8.63;6.35;;;;;;;;;;4947036;28;20051;-92
2021/06/07 10:43:52;;;;;;;7.82;6.43;;;;;;;;;;4963155;28;20075;-91
2021/06/07 10:46:21;;;;;;;7.43;6.43;;;;;;;;;;4940534;28;20422;-93
2021/06/07 10:48:50;;;;;;;7.97;6.90;;;;;;;;;;4960527;28;20049;-93
2021/06/07 10:51:16;;;;;;;7.07;6.13;;;;;;;;;;4959982;28;20043;-93
2021/06/07 10:53:45;;;;;;;6.88;6.18;;;;;;;;;;4952884;28;20048;-93
2021/06/07 10:56:12;;;;;;;6.45;5.80;;;;;;;;;;4950481;28;20044;-93
2021/06/07 10:58:57;;;;;;;6.85;5.63;;;;;;;;;;4959918;28;20125;-92
2021/06/07 11:01:24;;;;;;;7.38;5.57;;;;;;;;;;4962618;28;20053;-90
2021/06/07 11:03:57;;;;;;;6.47;5.88;;;;;;;;;;4959764;28;20058;-93
2021/06/07 11:06:24;;;;;;;6.68;6.00;;;;;;;;;;4961879;28;20075;-92
2021/06/07 11:09:09;;;;;;;7.10;6.40;;;;;;;;;;4964267;28;20067;-96
2021/06/07 11:11:35;;;;;;;;;;;;;;;;;;4960594;28;20102;-93
2021/06/07 11:14:02;;;;;;;6.32;5.72;;;;;;;;;;4952756;28;19926;-92
2021/06/07 11:16:37;;;;;;;6.47;5.22;;;;;;;;;;4950381;28;20047;-94
2021/06/07 11:19:08;;;;;;;5.70;5.07;;;;;;;;;;4959147;28;20069;-93
2021/06/07 11:21:36;;;;;;;6.03;5.03;;;;;;;;;;4957259;28;21249;-94
2021/06/07 11:24:03;;;;;;;5.65;4.78;;;;;;;;;;4956781;28;20073;-94
2021/06/07 11:26:37;;;;;;;6.05;4.75;;;;;;;;;;4954269;28;20515;-93
2021/06/07 11:29:05;;;;;;;5.53;4.57;;;;;;;;;;4951501;28;20447;-94
2021/06/07 11:31:35;;;;;;;5.82;5.10;;;;;;;;;;4951187;28;20114;-93
2021/06/07 11:34:06;;;;;;;5.97;4.97;;;;;;;;;;4955479;28;20045;-94
2021/06/07 11:36:43;;;;;;;4.78;4.28;;;;;;;;;;4953954;28;20055;-92
2021/06/07 11:39:12;;;;;;;6.53;4.28;;;;;;;;;;4955876;28;20559;-94
2021/06/07 11:41:48;;;;;;;7.20;4.95;;;;;;;;;;4946694;28;20051;-93
2021/06/07 11:44:17;;;;;;;7.82;5.60;;;;;;;;;;4955379;28;20095;-92
2021/06/07 11:46:43;;;;;;;6.82;5.05;;;;;;;;;;4945232;28;20503;-94
2021/06/07 11:49:17;;;;;;;7.07;5.07;;;;;;;;;;4954945;28;20189;-93
2021/06/07 11:51:44;;;;;;;7.13;5.65;;;;;;;;;;4952119;28;20175;-93
2021/06/07 11:54:26;;;;;;;6.55;5.68;;;;;;;;;;4954724;28;20053;-93
2021/06/07 11:57:00;;;;;;;6.82;6.10;;;;;;;;;;4953142;28;20051;-95
2021/06/07 11:59:27;;;;;;;8.55;5.68;;;;;;;;;;4945425;28;20612;-93
2021/06/07 12:01:53;;;;;;;6.63;5.60;;;;;;;;;;4951590;28;20471;-93
2021/06/07 12:04:27;;;;;;;6.20;5.60;;;;;;;;;;4951919;28;20094;-93
2021/06/07 12:07:00;;;;;;;6.60;5.75;;;;;;;;;;4948747;28;20054;-94
2021/06/07 12:09:27;;;;;;;6.38;5.47;;;;;;;;;;4955147;28;20062;-93
2021/06/07 12:11:53;;;;;;;6.25;5.65;;;;;;;;;;4954706;28;20051;-93
2021/06/07 12:14:27;;;;;;;6.75;5.85;;;;;;;;;;4959166;28;20057;-93
2021/06/07 12:17:04;;;;;;;5.97;5.32;;;;;;;;;;4965211;28;20046;-92
2021/06/07 12:20:20;;;;;;;6.95;5.80;;;;;;;;;;4930690;29;20074;-93
2021/06/07 12:22:58;;;;;;;;;;;;;;;;;;4936631;29;20463;-93
2021/06/07 12:28:20;;;;;;;7.10;6.40;;;;;;;;;;4942075;29;20118;-92
2021/06/07 12:30:52;;;;;;;7.10;6.50;;;;;;;;;;4939523;29;20138;-93
2021/06/07 12:33:37;;;;;;;8.10;6.10;;;;;;;;;;4943608;29;20058;-92
2021/06/07 12:36:15;;;;;;;6.60;5.95;;;;;;;;;;4947251;29;20094;-91
2021/06/07 12:38:54;;;;;;;8.20;6.03;;;;;;;;;;4953303;29;20063;-90
2021/06/07 12:41:30;;;;;;;10.30;6.35;;;;;;;;;;4955000;29;20462;-91
2021/06/07 12:44:04;;;;;;;9.73;5.93;;;;;;;;;;4954431;29;20046;-92
2021/06/07 12:46:53;;;;;;;6.60;5.70;;;;;;;;;;4955654;29;20185;-91
2021/06/07 12:49:26;;;;;;;5.60;4.72;;;;;;;;;;4954946;29;20055;-91
2021/06/07 12:52:14;;;;;;;;;;;;;;;;;;;;;
2021/06/07 12:54:45;;;;;;;7.93;6.05;;;;;;;;;;4957122;28;20043;-92
2021/06/07 12:57:14;;;;;;;5.10;4.60;;;;;;;;;;4941760;28;20056;-92
2021/06/07 12:59:40;;;;;;;4.18;2.70;;;;;;;;;;4953201;28;20042;-92
2021/06/07 13:02:16;;;;;;;4.75;3.08;;;;;;;;;;4955933;28;20062;-92
2021/06/07 13:04:53;;;;;;;5.00;3.70;;;;;;;;;;4952262;28;20114;-93
2021/06/07 13:07:25;;;;;;;5.40;4.72;;;;;;;;;;4958442;28;20044;-92
2021/06/07 13:09:54;;;;;;;3.67;3.15;;;;;;;;;;4955969;28;20055;-92
2021/06/07 13:12:25;;;;;;;4.45;3.40;;;;;;;;;;4957875;28;20042;-93
2021/06/07 13:14:56;;;;;;;4.43;3.10;;;;;;;;;;4954491;28;20454;-92
2021/06/07 13:17:33;;;;;;;4.20;3.70;;;;;;;;;;4950108;28;20377;-93
2021/06/07 13:20:15;;;;;;;4.80;4.10;;;;;;;;;;4961673;28;20051;-96
2021/06/07 13:22:44;;;;;;;4.55;3.97;;;;;;;;;;4956286;28;20126;-96
2021/06/07 13:25:17;;;;;;;5.32;4.57;;;;;;;;;;4955589;28;20073;-92
2021/06/07 13:27:43;;;;;;;3.88;3.17;;;;;;;;;;4940412;28;20055;-92
2021/06/07 13:30:13;;;;;;;4.50;3.28;;;;;;;;;;4952806;28;20050;-94
2021/06/07 13:32:44;;;;;;;3.90;2.83;;;;;;;;;;4950658;28;20825;-94
2021/06/07 13:35:13;;;;;;;3.00;2.70;;;;;;;;;;4966462;28;20047;-93
2021/06/07 13:37:45;;;;;;;3.95;2.97;;;;;;;;;;4951990;28;20495;-94
2021/06/07 13:40:21;;;;;;;5.85;3.45;;;;;;;;;;4940056;29;20051;-93
2021/06/07 13:42:57;;;;;;;3.40;3.00;;;;;;;;;;4965822;28;20039;-93
2021/06/07 13:45:34;;;;;;;4.05;3.30;;;;;;;;;;4919643;29;20062;-94
2021/06/07 13:48:15;;;;;;;5.43;3.45;;;;;;;;;;4951672;29;20039;-92
2021/06/07 13:50:54;;;;;;;4.03;3.63;;;;;;;;;;4954103;29;20039;-94
2021/06/07 13:53:36;;;;;;;6.13;4.40;;;;;;;;;;4953588;29;20219;-93
2021/06/07 13:56:15;;;;;;;3.70;2.53;;;;;;;;;;4953601;29;20043;-93
2021/06/07 13:58:45;;;;;;;3.75;3.10;;;;;;;;;;4943951;29;20046;-93
2021/06/07 14:01:32;;;;;;;;;;;;;;;;;;;;;
2021/06/07 14:04:08;;;;;;;4.88;3.42;;;;;;;;;;4942730;29;20476;-95
2021/06/07 14:06:50;;;;;;;3.90;3.35;;;;;;;;;;4959898;29;20049;-95
2021/06/07 14:09:29;;;;;;;;;;;;;;;;;;;;;
2021/06/07 14:12:15;;;;;;;4.18;2.97;;;;;;;;;;4966301;29;20051;-96
2021/06/07 14:15:00;;;;;;;4.78;4.05;;;;;;;;;;4953963;28;20051;-95
2021/06/07 14:21:15;;;;;;;4.85;3.30;;;;;;;;;;4951570;29;20131;-96
2021/06/07 14:27:27;;;;;;;5.38;4.88;;;;;;;;;;4969220;29;20406;-93
2021/06/07 14:30:13;;;;;;;4.90;4.40;;;;;;;;;;4962450;28;20081;-96
2021/06/07 14:32:44;;;;;;;4.55;3.40;;;;;;;;;;4947634;29;20055;-96
2021/06/07 14:35:16;;;;;;;5.37;4.20;;;;;;;;;;4937507;29;20063;-95
2021/06/07 14:37:54;;;;;;;5.80;5.07;;;;;;;;;;4951309;29;20327;-95
2021/06/07 14:47:27;;;;;;;;;;;;;;;;;;;;;
2021/06/07 14:50:15;;;;;;;5.90;5.25;;;;;;;;;;4942763;29;20477;-95
2021/06/07 14:53:04;;;;;;;5.47;4.97;;;;;;;;;;4941970;29;20062;-96
2021/06/07 14:55:38;;;;;;;5.65;4.72;;;;;;;;;;4943072;29;20140;-95
2021/06/07 14:58:11;;;;;;;5.28;4.53;;;;;;;;;;4931992;29;20062;-96
2021/06/07 15:00:56;;;;;;;7.28;5.43;;;;;;;;;;4947299;28;20059;-95
2021/06/07 15:03:48;;;;;;;5.28;4.78;;;;;;;;;;4967412;28;20051;-96
2021/06/07 15:06:18;;;;;;;6.07;5.50;;;;;;;;;;4939570;29;20432;-96
2021/06/07 15:09:07;;;;;;;6.88;5.45;;;;;;;;;;4946029;28;20059;-96